CheckWX is a tool to help pilots better visualize weather data.  It is not intended as a substitute for an official pre-flight weather briefing.

04:18:55 UTC

KOZR TAF
Cairns AAF (Fort Rucker) Airport
Fort Rucker/Ozark, Alabama, USA
TAF KOZR 270000Z 2700/2806 33009KT 9999 SCT100 BKN200 QNH3010INS BECMG 2714/2715 06009KT 9999 BKN060 QNH3008INS TEMPO 2718/2722 VRB12G20KT 6000 -TSRA BKN060CB TX35/2721Z TN22/2712Z

Jun-27@
00:00 UTC

Jun-27 @ 00:00 UTC

Jun-27@
14:00 UTC

Jun-27 @ 14:00 UTC

TAF KOZR 270000Z 2700/2806 33009KT 9999 SCT100 BKN200 QNH3010INS
Wind
  • 330° at 9 KTS
Cloud Levels
  • Scattered at 10,000' AGL
  • Broken at 20,000' AGL

Jun-27@
14:00 UTC

Jun-27 @ 14:00 UTC

Jun-28@
06:00 UTC

Jun-28 @ 06:00 UTC

BECMG 2714/2715 06009KT 9999 BKN060 QNH3008INS

Becoming

Becoming Conditions expected by Thu, Jun 27, 2019 @ 15:00 UTC

Wind
  • 060° at 9 KTS
Cloud Levels
  • Broken at 6,000' AGL

Jun-27@
18:00 UTC

Jun-27 @ 18:00 UTC

Jun-27@
22:00 UTC

Jun-27 @ 22:00 UTC

TEMPO 2718/2722 VRB12G20KT 6000 -TSRA BKN060CB TX35/2721Z TN22/2712Z

Temporary

Temporary Changes expected for less than half the time period

Wind
  • Variable at 12 KTS
  • {Gusting to 20 KTS
Conditions
Light Thunderstorm, Light Rain
Cloud Levels
  • Broken at 6,000' AGL